Station: KADINA AWS

  Atmospheric Gas Attenuation - ITU Rec 676-11   --------------- db/100km ---------------
Date Time Temp RH % AH g/m3 Dew Point Wind Direction Speed kph Gust kph Barometer mB Rainfall Since 9am 24GHz 47GHz 76GHz 122GHz 134GHz 241GHz
03 07:40 15.4 70 9.2 10 17 20 1020.9 0 20.8 26.7 41.7 109.5 104.9 361.3
03 07:30 14.8 73 9.25 10 15 20 1021 0 20.9 26.9 42.3 110.9 106.4 366.5
03 07:20 13.7 75 8.88 9.4 17 19 1020.9 0 20.2 26.7 41.3 108.4 102.9 354.1
03 07:10 13.2 78 8.96 9.5 13 15 1020.6 0 20.4 26.9 41.9 110.0 104.6 360.1
03 07:00 12.6 79 8.74 9.1 13 17 1020.5 0 19.9 26.8 41.3 108.4 102.4 352.4
03 06:50 12.3 80 8.69 9 15 17 1020.4 0 19.8 26.8 41.3 108.2 102.1 351.3
03 06:40 11.8 83 8.74 9 15 17 1020.5 0 20.0 27.0 41.7 109.5 103.5 356.0
03 06:30 10.8 86 8.5 8.6 13 17 1020.4 0 19.5 26.9 41.2 108.2 101.5 348.9
03 06:20 10.2 88 8.38 8.3 13 15 1020.4 0 19.3 26.9 41.1 107.7 100.7 345.8
03 06:10 9.7 88 8.11 7.8 13 13 1020.4 0 18.7 26.6 40.2 105.3 97.6 334.9
03 06:00 9.4 87 7.87 7.3 11 13 1020.4 0 18.2 26.3 39.3 103.1 94.6 324.7
03 05:50 9.6 88 8.06 7.7 11 11 1020.2 0 18.6 26.5 40.0 104.9 97.0 332.9
03 05:40 9.6 88 8.06 7.7 13 13 1020 0 18.6 26.5 40.0 104.9 97.0 332.9
03 05:30 9.3 88 7.91 7.4 11 15 1019.7 0 18.3 26.3 39.5 103.6 95.3 326.8
03 05:20 8.9 87 7.62 6.9 7 9 1019.9 0 17.7 26.0 38.5 100.9 91.8 314.6
03 05:00 9.5 87 7.92 7.4 7 9 1019.9 0 18.3 26.3 39.5 103.4 95.2 326.5
03 04:50 9.7 87 8.02 7.6 7 7 1019.9 0 18.5 26.4 39.8 104.3 96.3 330.5
03 04:40 9.7 88 8.11 7.8 0 0 1020.1 0 18.7 26.6 40.2 105.3 97.5 334.9
03 04:30 9.3 87 7.82 7.3 2 6 1019.9 0 18.1 26.2 39.2 102.6 94.0 322.5
03 04:20 9.2 87 7.77 7.2 6 6 1019.9 0 18.0 26.1 39.0 102.1 93.5 320.6
03 04:10 9.2 87 7.77 7.2 9 9 1019.8 0 18.0 26.1 39.0 102.1 93.5 320.5
03 04:00 9.5 86 7.83 7.3 9 11 1019.7 0 18.1 26.1 39.1 102.4 93.9 322.1
03 03:50 9.8 85 7.89 7.4 9 11 1019.8 0 18.3 26.1 39.2 102.7 94.4 323.8
03 03:40 10 85 7.99 7.6 9 9 1019.9 0 18.5 26.3 39.5 103.5 95.5 327.8
03 03:30 10.3 85 8.14 7.9 13 15 1019.8 0 18.8 26.4 40.0 104.8 97.2 333.7
03 03:20 10.8 84 8.3 8.2 15 15 1019.7 0 19.1 26.5 40.4 105.9 98.7 339.1
03 03:10 10.7 84 8.25 8.1 11 11 1019.7 0 19.0 26.5 40.2 105.5 98.2 337.2
03 03:00 10.9 82 8.16 8 11 13 1019.7 0 18.8 26.3 39.8 104.2 96.7 332.0
03 02:50 11.2 81 8.21 8.1 11 11 1020 0 18.9 26.3 39.8 104.4 97.0 333.2
03 02:40 11.4 81 8.32 8.3 7 7 1019.9 0 19.1 26.4 40.2 105.3 98.2 337.5
03 02:30 11.5 82 8.47 8.5 13 19 1019.8 0 19.4 26.6 40.7 106.8 100.1 344.2
03 02:20 11.8 80 8.42 8.5 17 19 1019.9 0 19.3 26.4 40.4 105.9 99.1 340.6
03 02:10 11.9 80 8.47 8.6 17 20 1019.8 0 19.4 26.5 40.5 106.3 99.6 342.5
03 02:00 11.8 80 8.42 8.5 15 17 1019.9 0 19.3 26.4 40.4 105.9 99.1 340.6
03 01:50 12.1 78 8.37 8.4 13 15 1020.2 0 19.2 26.3 40.0 105.0 98.1 337.0
03 01:40 12.3 78 8.47 8.6 13 15 1020.1 0 19.4 26.4 40.3 105.8 99.1 340.8
03 01:30 12.1 79 8.47 8.6 15 19 1020.2 0 19.4 26.4 40.4 106.1 99.4 341.7
03 01:20 11.6 80 8.32 8.3 15 17 1020.3 0 19.1 26.3 40.1 105.1 98.0 336.8
03 01:10 11.8 79 8.32 8.3 15 17 1020.6 0 19.1 26.3 40.0 104.9 97.8 336.0
03 01:00 12 78 8.31 8.3 15 19 1020.3 0 19.0 26.2 39.8 104.4 97.4 334.6
03 00:50 12.4 77 8.41 8.5 15 19 1020.5 0 19.2 26.3 40.1 105.0 98.2 337.7
03 00:40 12.4 78 8.52 8.7 17 19 1020.5 0 19.5 26.4 40.5 106.2 99.7 342.8
03 00:30 11.8 79 8.32 8.3 15 19 1020.7 0 19.1 26.3 40.0 104.9 97.8 336.0
03 00:20 11.7 78 8.16 8 15 15 1020.8 0 18.7 26.1 39.4 103.3 95.8 328.9
03 00:10 12 77 8.21 8.1 13 15 1020.9 0 18.8 26.1 39.5 103.4 96.1 330.1
03 00:00 12.4 76 8.3 8.3 15 17 1021 0 19.0 26.1 39.6 103.9 96.8 332.6
02 23:50 12.3 76 8.25 8.2 15 15 1020.9 0 18.9 26.1 39.5 103.5 96.2 330.7
02 23:40 12.7 74 8.24 8.2 13 13 1021.1 0 18.9 25.9 39.2 102.8 95.6 328.6
02 23:30 13.1 73 8.33 8.4 13 17 1020.9 0 19.0 25.9 39.4 103.3 96.3 331.0
02 23:20 13.1 73 8.33 8.4 15 15 1020.8 0 19.0 25.9 39.4 103.3 96.3 331.0
02 23:10 13.5 71 8.31 8.4 13 15 1020.9 0 19.0 25.8 39.1 102.5 95.6 328.4
02 23:00 13.8 70 8.34 8.4 15 17 1020.9 0 19.0 25.8 39.1 102.5 95.6 328.6
02 22:50 14.1 69 8.37 8.5 17 19 1020.6 0 19.1 25.7 39.1 102.4 95.6 328.6
02 22:40 14.5 68 8.46 8.7 20 22 1020.5 0 19.2 25.7 39.2 102.8 96.3 331.1
02 22:30 14.7 67 8.44 8.6 20 26 1020.5 0 19.2 25.6 39.0 102.3 95.8 329.3
02 22:20 14.9 67 8.54 8.8 24 26 1020.5 0 19.4 25.8 39.3 103.1 96.8 333.0
02 22:10 15 67 8.59 8.9 26 30 1020.2 0 19.5 25.8 39.5 103.5 97.3 334.8
02 22:00 15.2 67 8.7 9.1 24 30 1020.2 0 19.7 25.9 39.8 104.4 98.5 339.0
02 21:50 15.3 67 8.75 9.2 20 24 1020.1 0 19.8 26.0 39.9 104.8 99.0 340.8
02 21:40 15.5 67 8.86 9.4 22 24 1020.1 0 20.1 26.1 40.3 105.7 100.2 345.0
02 21:30 15.7 67 8.96 9.6 22 32 1019.9 0 20.3 26.2 40.6 106.5 101.2 348.6
02 21:20 15.9 66 8.94 9.6 24 28 1019.6 0 20.2 26.1 40.4 105.9 100.7 346.7
02 21:10 16.1 67 9.18 10 24 33 1019.5 0 20.7 26.4 41.2 108.2 103.6 356.8
02 21:00 16.4 67 9.35 10.3 24 33 1019.5 0 21.1 26.6 41.7 109.6 105.4 363.3
02 20:50 16.8 66 9.44 10.4 28 32 1019.3 0 21.2 26.6 41.9 110.0 106.0 365.5
02 20:40 17.1 65 9.46 10.5 30 35 1019 0 21.2 26.5 41.8 109.7 105.8 364.9
02 20:30 17.2 66 9.66 10.8 24 30 1019.1 0 21.7 26.8 42.5 111.7 108.3 373.7
02 20:20 16.9 69 9.92 11.2 22 26 1019 0 22.2 27.3 43.8 115.0 112.2 387.1
02 20:10 17.1 68 9.9 11.2 30 33 1018.8 0 22.2 27.2 43.6 114.4 111.6 385.1
02 20:00 17.4 66 9.78 11 28 37 1018.7 0 21.9 26.9 42.9 112.7 109.6 378.1
02 19:50 17.8 64 9.71 10.9 28 33 1018.6 0 21.7 26.7 42.4 111.4 108.1 373.0
02 19:40 18 64 9.83 11.1 30 35 1018.4 0 22.0 26.8 42.8 112.3 109.4 377.4
02 19:30 18.4 62 9.75 11 32 39 1018.3 0 21.8 26.6 42.2 110.9 107.8 371.9
02 19:20 19.1 59 9.67 10.9 30 37 1018.2 0 21.6 26.2 41.5 109.1 105.8 365.0
02 19:10 19.2 58 9.56 10.7 33 37 1018 0 21.4 26.0 41.1 107.8 104.2 359.5
02 19:00 19.9 55 9.45 10.6 32 39 1017.9 0 21.1 25.7 40.3 105.7 101.9 351.5
02 18:50 19.8 56 9.56 10.8 28 32 1018 0 21.3 25.9 40.7 107.0 103.4 356.8
02 18:40 19.5 56 9.4 10.5 32 39 1017.6 0 21.0 25.7 40.3 105.7 101.8 351.0
02 18:30 19.8 56 9.56 10.8 35 44 1017.6 0 21.3 25.8 40.7 107.0 103.4 356.7
02 18:20 20.2 54 9.44 10.6 33 37 1017.4 0 21.0 25.5 40.1 105.2 101.4 349.6
02 18:10 20.5 54 9.61 10.9 33 41 1017.3 0 21.4 25.7 40.6 106.5 103.1 355.7
02 18:00 20.3 53 9.32 10.4 35 48 1017.1 0 20.8 25.3 39.5 103.8 99.7 343.9
02 17:50 20.7 54 9.72 11.1 35 41 1017 0 21.6 25.8 40.9 107.3 104.2 359.5
02 17:40 20.4 53 9.38 10.5 35 44 1017 0 20.9 25.4 39.7 104.3 100.3 346.0
02 17:30 20.9 52 9.47 10.7 33 46 1016.8 0 21.1 25.4 39.8 104.5 100.8 347.7
02 17:20 20.4 53 9.38 10.5 37 43 1016.8 0 20.9 25.4 39.7 104.3 100.3 346.0
02 17:10 20.5 53 9.43 10.6 32 35 1017 0 21.0 25.4 39.9 104.6 100.8 347.8
02 17:00 19.7 56 9.51 10.7 32 41 1017 0 21.2 25.8 40.6 106.5 102.9 354.8
02 16:50 20.8 54 9.78 11.2 30 35 1017 0 21.7 25.9 41.0 107.8 104.8 361.7
02 16:40 21.4 53 9.94 11.4 35 39 1017.1 0 22.0 26.0 41.3 108.6 106.0 366.0
02 16:30 20.9 53 9.65 11 32 43 1017 0 21.5 25.6 40.5 106.3 103.0 355.6
02 16:20 21.1 54 9.95 11.4 32 39 1016.9 0 22.1 26.0 41.5 109.1 106.5 367.8
02 16:10 20.8 54 9.78 11.2 37 41 1016.6 0 21.7 25.9 41.0 107.8 104.8 361.6
02 16:00 20.8 54 9.78 11.2 32 41 1016.6 0 21.7 25.9 41.0 107.8 104.8 361.6
02 15:50 21.3 55 10.25 11.9 30 35 1016.8 0 22.7 26.4 42.6 111.9 110.0 380.1
02 15:40 20.1 58 10.08 11.6 35 43 1016.6 0 22.4 26.5 42.5 111.8 109.5 378.2
02 15:30 21.9 55 10.61 12.5 33 46 1016.9 0 23.4 26.8 43.6 114.8 113.7 393.1
02 15:20 21.4 57 10.69 12.5 35 43 1017 0 23.6 27.1 44.2 116.3 115.5 399.2
02 15:10 21.4 55 10.31 12 30 35 1017 0 22.8 26.5 42.8 112.4 110.6 382.3
02 15:00 20.9 55 10.02 11.5 32 43 1017 0 22.2 26.2 41.9 110.1 107.7 371.8

Last Refresh: 03-Dec-2021 07:49:44

Bureau of Meteorology